Date,TemperatureHighF,TemperatureAvgF,TemperatureLowF,DewpointHighF,DewpointAvgF,DewpointLowF,HumidityHigh,HumidityAvg,HumidityLow,PressureMaxIn,PressureMinIn,WindSpeedMaxMPH,WindSpeedAvgMPH,GustSpeedMaxMPH,PrecipitationSumIn
2013-3-1,37.5,33.4,31.6,32.0,28.8,26.1,93,83,70,29.77,29.61,19,4,19,0.04
2013-3-2,34.1,29.5,23.3,29.1,24.8,20.8,92,83,68,29.79,29.74,17,4,17,0.00
2013-3-3,33.1,27.1,22.9,25.3,21.2,18.1,91,78,66,29.77,29.68,16,3,16,0.07
2013-3-4,33.1,27.3,25.6,23.1,19.8,17.4,86,73,55,29.90,29.70,20,4,20,0.07
2013-3-5,35.9,29.2,25.3,26.5,23.4,20.1,89,79,64,30.11,29.90,14,2,14,0.01
2013-3-6,45.1,35.4,26.1,34.1,26.0,22.4,91,70,45,30.17,30.08,19,3,19,0.01
2013-3-7,37.5,33.7,30.6,25.6,23.2,19.2,80,66,49,30.20,30.15,20,4,20,0.00
2013-3-8,38.8,32.6,29.1,27.0,24.5,22.0,83,72,58,30.33,30.15,29,8,29,0.00
2013-3-9,47.9,35.0,24.5,29.9,23.5,19.5,82,64,35,30.37,30.30,17,2,17,0.00
2013-3-10,53.5,41.7,26.6,26.4,23.6,19.8,83,53,28,30.33,30.10,31,8,31,0.00
2013-3-11,48.6,45.6,40.9,34.6,30.5,26.0,64,56,42,30.15,29.92,33,12,33,0.00
2013-3-12,52.0,46.4,37.3,50.0,42.5,31.7,96,87,54,29.96,29.67,23,8,28,1.14
2013-3-13,41.8,36.2,29.4,37.5,32.5,26.9,98,87,64,29.82,29.74,16,1,16,0.01
2013-3-14,32.9,26.3,18.9,28.0,13.5,3.3,92,58,47,29.93,29.73,28,5,28,0.01
2013-3-15,32.9,24.8,16.5,28.7,14.5,3.9,95,66,40,29.94,29.57,24,6,24,0.00
2013-3-16,29.7,23.9,18.6,21.2,13.7,10.0,79,65,50,29.93,29.74,18,3,18,0.01
2013-3-17,27.9,20.8,13.3,16.1,7.9,0.1,84,59,34,30.36,29.93,23,5,23,0.01
2013-3-18,32.7,23.3,11.2,22.1,6.6,-0.3,73,50,29,30.45,30.11,16,2,16,0.00
2013-3-19,33.7,29.9,27.6,33.2,28.6,22.1,98,95,73,30.11,29.72,22,3,22,0.09
2013-3-20,34.9,28.9,22.5,28.0,21.8,14.2,96,76,53,29.73,29.65,21,3,21,0.09
2013-3-21,36.8,28.4,20.6,21.6,16.0,11.9,79,61,37,29.74,29.63,17,3,17,0.09
2013-3-22,35.8,27.3,17.7,25.5,18.0,13.1,85,68,51,29.76,29.65,11,2,11,0.00
2013-3-23,39.2,33.8,28.2,23.2,19.9,16.0,74,57,39,29.82,29.69,30,7,30,0.00
2013-3-24,42.5,35.3,26.6,27.0,23.3,20.3,80,62,48,29.87,29.80,22,4,22,0.00
2013-3-25,43.9,34.3,24.8,30.4,26.2,20.1,85,73,54,29.82,29.57,18,3,18,0.00
2013-3-26,47.6,37.7,31.6,30.2,26.0,20.9,79,64,37,29.81,29.62,20,4,20,0.00
2013-3-27,51.7,40.8,32.4,32.8,27.3,22.5,80,59,43,29.93,29.78,21,4,21,0.00
2013-3-28,53.5,41.4,34.7,37.5,34.3,31.7,95,77,49,30.05,29.93,17,2,17,0.01
2013-3-29,52.9,42.6,36.3,37.8,32.1,27.2,86,67,45,30.08,30.01,18,2,18,0.00
2013-3-30,54.4,41.2,27.5,31.5,23.8,13.7,90,55,21,30.11,30.04,16,2,16,0.00
2013-3-31,56.5,42.8,28.2,39.9,25.3,18.2,89,53,29,30.09,29.71,29,7,29,0.03